sensor_id;sensor_type;location;lat;lon;timestamp;pressure;altitude;pressure_sealevel;temperature;humidity
77823;BME280;67013;49.730;17.292;2023-03-03T00:00:12;98548.34;;;2.34;61.74
77823;BME280;67013;49.730;17.292;2023-03-03T00:02:42;98546.71;;;2.22;61.82
77823;BME280;67013;49.730;17.292;2023-03-03T00:05:11;98550.06;;;2.10;61.60
77823;BME280;67013;49.730;17.292;2023-03-03T00:07:44;98551.67;;;1.98;61.93
77823;BME280;67013;49.730;17.292;2023-03-03T00:10:15;98549.46;;;1.89;61.97
77823;BME280;67013;49.730;17.292;2023-03-03T00:12:48;98547.88;;;1.80;62.06
77823;BME280;67013;49.730;17.292;2023-03-03T00:15:21;98554.77;;;1.69;62.34
77823;BME280;67013;49.730;17.292;2023-03-03T00:17:51;98555.30;;;1.59;62.48
77823;BME280;67013;49.730;17.292;2023-03-03T00:20:33;98548.73;;;1.50;62.54
77823;BME280;67013;49.730;17.292;2023-03-03T00:23:22;98550.21;;;1.42;62.88
77823;BME280;67013;49.730;17.292;2023-03-03T00:25:53;98555.20;;;1.36;63.21
77823;BME280;67013;49.730;17.292;2023-03-03T00:28:28;98547.19;;;1.30;63.36
77823;BME280;67013;49.730;17.292;2023-03-03T00:30:59;98547.77;;;1.22;63.36
77823;BME280;67013;49.730;17.292;2023-03-03T00:33:30;98543.56;;;1.15;63.56
77823;BME280;67013;49.730;17.292;2023-03-03T00:36:30;98544.45;;;1.14;63.44
77823;BME280;67013;49.730;17.292;2023-03-03T00:39:18;98544.29;;;1.14;63.75
77823;BME280;67013;49.730;17.292;2023-03-03T00:41:50;98545.23;;;1.17;63.54
77823;BME280;67013;49.730;17.292;2023-03-03T00:44:41;98546.83;;;1.20;63.49
77823;BME280;67013;49.730;17.292;2023-03-03T00:47:24;98545.65;;;1.24;63.59
77823;BME280;67013;49.730;17.292;2023-03-03T00:49:58;98544.21;;;1.27;63.67
77823;BME280;67013;49.730;17.292;2023-03-03T00:52:29;98540.27;;;1.27;63.62
77823;BME280;67013;49.730;17.292;2023-03-03T00:54:58;98538.05;;;1.26;63.92
77823;BME280;67013;49.730;17.292;2023-03-03T00:57:27;98535.15;;;1.26;63.84
77823;BME280;67013;49.730;17.292;2023-03-03T00:59:57;98534.32;;;1.25;64.23
77823;BME280;67013;49.730;17.292;2023-03-03T01:02:27;98537.08;;;1.24;64.60
77823;BME280;67013;49.730;17.292;2023-03-03T01:04:58;98535.92;;;1.23;64.95
77823;BME280;67013;49.730;17.292;2023-03-03T01:07:27;98532.71;;;1.22;64.99
77823;BME280;67013;49.730;17.292;2023-03-03T01:09:57;98532.23;;;1.21;65.11
77823;BME280;67013;49.730;17.292;2023-03-03T01:12:26;98529.91;;;1.19;65.01
77823;BME280;67013;49.730;17.292;2023-03-03T01:14:56;98525.45;;;1.14;64.60
77823;BME280;67013;49.730;17.292;2023-03-03T01:17:25;98522.14;;;1.10;64.56
77823;BME280;67013;49.730;17.292;2023-03-03T01:19:55;98521.89;;;1.02;64.54
77823;BME280;67013;49.730;17.292;2023-03-03T01:22:24;98523.14;;;0.95;64.36
77823;BME280;67013;49.730;17.292;2023-03-03T01:24:54;98520.41;;;0.90;64.86
77823;BME280;67013;49.730;17.292;2023-03-03T01:27:23;98516.64;;;0.85;64.75
77823;BME280;67013;49.730;17.292;2023-03-03T01:29:53;98512.30;;;0.81;65.33
77823;BME280;67013;49.730;17.292;2023-03-03T01:32:23;98510.36;;;0.77;65.21
77823;BME280;67013;49.730;17.292;2023-03-03T01:34:53;98513.80;;;0.72;65.57
77823;BME280;67013;49.730;17.292;2023-03-03T01:37:23;98513.23;;;0.68;65.77
77823;BME280;67013;49.730;17.292;2023-03-03T01:39:53;98510.19;;;0.66;65.79
77823;BME280;67013;49.730;17.292;2023-03-03T01:42:23;98506.41;;;0.66;65.63
77823;BME280;67013;49.730;17.292;2023-03-03T01:47:59;98494.33;;;0.70;65.89
77823;BME280;67013;49.730;17.292;2023-03-03T01:50:44;98490.48;;;0.67;65.79
77823;BME280;67013;49.730;17.292;2023-03-03T01:53:17;98488.42;;;0.67;65.97
77823;BME280;67013;49.730;17.292;2023-03-03T01:55:48;98488.45;;;0.66;66.00
77823;BME280;67013;49.730;17.292;2023-03-03T01:58:22;98488.81;;;0.66;66.05
77823;BME280;67013;49.730;17.292;2023-03-03T02:00:56;98486.95;;;0.65;65.84
77823;BME280;67013;49.730;17.292;2023-03-03T02:03:27;98487.52;;;0.63;65.83
77823;BME280;67013;49.730;17.292;2023-03-03T02:05:59;98486.57;;;0.61;65.88
77823;BME280;67013;49.730;17.292;2023-03-03T02:08:33;98484.95;;;0.58;65.86
77823;BME280;67013;49.730;17.292;2023-03-03T02:11:06;98487.42;;;0.56;66.05
77823;BME280;67013;49.730;17.292;2023-03-03T02:13:36;98477.92;;;0.53;66.27
77823;BME280;67013;49.730;17.292;2023-03-03T02:16:07;98459.66;;;0.52;66.08
77823;BME280;67013;49.730;17.292;2023-03-03T02:18:37;98454.09;;;0.49;66.18
77823;BME280;67013;49.730;17.292;2023-03-03T02:21:11;98456.05;;;0.47;66.77
77823;BME280;67013;49.730;17.292;2023-03-03T02:23:48;98456.59;;;0.41;66.77
77823;BME280;67013;49.730;17.292;2023-03-03T02:26:22;98454.50;;;0.35;66.85
77823;BME280;67013;49.730;17.292;2023-03-03T02:28:52;98456.70;;;0.31;66.92
77823;BME280;67013;49.730;17.292;2023-03-03T02:31:24;98453.46;;;0.25;66.89
77823;BME280;67013;49.730;17.292;2023-03-03T02:33:53;98448.23;;;0.23;66.91
77823;BME280;67013;49.730;17.292;2023-03-03T02:36:24;98449.62;;;0.23;67.10
77823;BME280;67013;49.730;17.292;2023-03-03T02:39:00;98447.55;;;0.23;67.02
77823;BME280;67013;49.730;17.292;2023-03-03T02:41:34;98441.16;;;0.25;66.88
77823;BME280;67013;49.730;17.292;2023-03-03T02:44:06;98436.45;;;0.28;66.85
77823;BME280;67013;49.730;17.292;2023-03-03T02:46:38;98435.79;;;0.32;66.91
77823;BME280;67013;49.730;17.292;2023-03-03T02:49:09;98435.73;;;0.34;66.79
77823;BME280;67013;49.730;17.292;2023-03-03T02:51:40;98439.45;;;0.36;66.99
77823;BME280;67013;49.730;17.292;2023-03-03T02:54:11;98436.56;;;0.35;66.94
77823;BME280;67013;49.730;17.292;2023-03-03T02:56:41;98435.73;;;0.34;66.72
77823;BME280;67013;49.730;17.292;2023-03-03T02:59:11;98436.13;;;0.32;66.81
77823;BME280;67013;49.730;17.292;2023-03-03T03:01:41;98440.84;;;0.30;66.77
77823;BME280;67013;49.730;17.292;2023-03-03T03:04:13;98440.27;;;0.27;66.87
77823;BME280;67013;49.730;17.292;2023-03-03T03:06:43;98441.06;;;0.23;66.85
77823;BME280;67013;49.730;17.292;2023-03-03T03:09:13;98438.98;;;0.18;66.80
77823;BME280;67013;49.730;17.292;2023-03-03T03:11:43;98439.94;;;0.15;66.92
77823;BME280;67013;49.730;17.292;2023-03-03T03:14:14;98439.65;;;0.13;66.97
77823;BME280;67013;49.730;17.292;2023-03-03T03:16:43;98439.15;;;0.13;67.37
77823;BME280;67013;49.730;17.292;2023-03-03T03:19:13;98440.55;;;0.11;67.25
77823;BME280;67013;49.730;17.292;2023-03-03T03:21:43;98442.48;;;0.09;67.27
77823;BME280;67013;49.730;17.292;2023-03-03T03:24:12;98443.39;;;0.08;67.44
77823;BME280;67013;49.730;17.292;2023-03-03T03:26:42;98437.48;;;0.05;67.14
77823;BME280;67013;49.730;17.292;2023-03-03T03:29:11;98434.96;;;0.04;67.50
77823;BME280;67013;49.730;17.292;2023-03-03T03:31:41;98437.20;;;0.03;67.56
77823;BME280;67013;49.730;17.292;2023-03-03T03:34:11;98438.92;;;0.03;67.55
77823;BME280;67013;49.730;17.292;2023-03-03T03:36:40;98437.13;;;0.06;67.62
77823;BME280;67013;49.730;17.292;2023-03-03T03:39:10;98435.34;;;0.08;67.78
77823;BME280;67013;49.730;17.292;2023-03-03T03:41:39;98439.85;;;0.12;67.96
77823;BME280;67013;49.730;17.292;2023-03-03T03:44:09;98445.33;;;0.17;67.81
77823;BME280;67013;49.730;17.292;2023-03-03T03:46:38;98443.99;;;0.21;68.10
77823;BME280;67013;49.730;17.292;2023-03-03T03:49:07;98443.56;;;0.25;68.22
77823;BME280;67013;49.730;17.292;2023-03-03T03:51:37;98444.41;;;0.25;68.14
77823;BME280;67013;49.730;17.292;2023-03-03T03:54:08;98441.52;;;0.24;67.96
77823;BME280;67013;49.730;17.292;2023-03-03T03:56:37;98440.25;;;0.21;68.04
77823;BME280;67013;49.730;17.292;2023-03-03T03:59:07;98435.56;;;0.18;68.05
77823;BME280;67013;49.730;17.292;2023-03-03T04:01:37;98433.29;;;0.14;68.12
77823;BME280;67013;49.730;17.292;2023-03-03T04:04:06;98424.48;;;0.12;67.98
77823;BME280;67013;49.730;17.292;2023-03-03T04:06:36;98422.52;;;0.08;68.23
77823;BME280;67013;49.730;17.292;2023-03-03T04:09:06;98423.12;;;0.05;68.23
77823;BME280;67013;49.730;17.292;2023-03-03T04:11:35;98425.23;;;0.03;68.46
77823;BME280;67013;49.730;17.292;2023-03-03T04:14:05;98427.21;;;0.00;68.36
77823;BME280;67013;49.730;17.292;2023-03-03T04:16:34;98427.29;;;-0.02;68.71
77823;BME280;67013;49.730;17.292;2023-03-03T04:19:04;98430.25;;;-0.05;68.74
77823;BME280;67013;49.730;17.292;2023-03-03T04:21:33;98426.41;;;-0.08;68.58
77823;BME280;67013;49.730;17.292;2023-03-03T04:24:03;98426.11;;;-0.09;68.67
77823;BME280;67013;49.730;17.292;2023-03-03T04:26:32;98426.59;;;-0.08;68.83
77823;BME280;67013;49.730;17.292;2023-03-03T04:29:02;98426.92;;;-0.08;68.81
77823;BME280;67013;49.730;17.292;2023-03-03T04:31:32;98429.80;;;-0.06;68.53
77823;BME280;67013;49.730;17.292;2023-03-03T04:34:01;98432.09;;;-0.03;68.46
77823;BME280;67013;49.730;17.292;2023-03-03T04:36:31;98429.35;;;0.02;68.26
77823;BME280;67013;49.730;17.292;2023-03-03T04:39:00;98427.69;;;0.07;68.34
77823;BME280;67013;49.730;17.292;2023-03-03T04:41:30;98431.21;;;0.09;68.17
77823;BME280;67013;49.730;17.292;2023-03-03T04:43:59;98433.41;;;0.10;67.99
77823;BME280;67013;49.730;17.292;2023-03-03T04:46:29;98433.20;;;0.12;68.12
77823;BME280;67013;49.730;17.292;2023-03-03T04:48:58;98440.03;;;0.12;67.81
77823;BME280;67013;49.730;17.292;2023-03-03T04:51:28;98440.23;;;0.11;67.67
77823;BME280;67013;49.730;17.292;2023-03-03T04:53:57;98439.48;;;0.07;67.66
77823;BME280;67013;49.730;17.292;2023-03-03T04:56:27;98438.39;;;0.03;67.76
77823;BME280;67013;49.730;17.292;2023-03-03T04:58:58;98437.68;;;-0.01;67.69
77823;BME280;67013;49.730;17.292;2023-03-03T05:01:28;98440.87;;;-0.06;67.70
77823;BME280;67013;49.730;17.292;2023-03-03T05:03:57;98440.67;;;-0.10;67.67
77823;BME280;67013;49.730;17.292;2023-03-03T05:06:26;98440.62;;;-0.14;67.73
77823;BME280;67013;49.730;17.292;2023-03-03T05:08:56;98435.44;;;-0.18;68.21
77823;BME280;67013;49.730;17.292;2023-03-03T05:11:25;98432.31;;;-0.23;68.05
77823;BME280;67013;49.730;17.292;2023-03-03T05:13:55;98430.20;;;-0.27;68.14
77823;BME280;67013;49.730;17.292;2023-03-03T05:16:24;98429.29;;;-0.30;68.38
77823;BME280;67013;49.730;17.292;2023-03-03T05:18:54;98430.39;;;-0.33;68.61
77823;BME280;67013;49.730;17.292;2023-03-03T05:21:23;98437.07;;;-0.33;68.43
77823;BME280;67013;49.730;17.292;2023-03-03T05:23:53;98443.68;;;-0.31;68.51
77823;BME280;67013;49.730;17.292;2023-03-03T05:26:22;98446.67;;;-0.29;68.64
77823;BME280;67013;49.730;17.292;2023-03-03T05:28:52;98447.60;;;-0.25;68.71
77823;BME280;67013;49.730;17.292;2023-03-03T05:31:21;98445.55;;;-0.19;68.39
77823;BME280;67013;49.730;17.292;2023-03-03T05:33:51;98442.34;;;-0.15;68.21
77823;BME280;67013;49.730;17.292;2023-03-03T05:36:21;98439.31;;;-0.11;68.26
77823;BME280;67013;49.730;17.292;2023-03-03T05:38:50;98444.01;;;-0.08;68.19
77823;BME280;67013;49.730;17.292;2023-03-03T05:41:20;98445.95;;;-0.04;67.99
77823;BME280;67013;49.730;17.292;2023-03-03T05:43:49;98448.95;;;-0.01;68.06
77823;BME280;67013;49.730;17.292;2023-03-03T05:46:18;98451.09;;;0.01;67.97
77823;BME280;67013;49.730;17.292;2023-03-03T05:48:48;98453.91;;;0.05;67.99
77823;BME280;67013;49.730;17.292;2023-03-03T05:51:17;98452.98;;;0.08;67.83
77823;BME280;67013;49.730;17.292;2023-03-03T05:53:47;98454.26;;;0.11;67.82
77823;BME280;67013;49.730;17.292;2023-03-03T05:56:16;98457.58;;;0.14;67.52
77823;BME280;67013;49.730;17.292;2023-03-03T05:58:46;98462.89;;;0.19;67.69
77823;BME280;67013;49.730;17.292;2023-03-03T06:01:15;98466.86;;;0.23;67.77
77823;BME280;67013;49.730;17.292;2023-03-03T06:03:45;98465.73;;;0.27;67.60
77823;BME280;67013;49.730;17.292;2023-03-03T06:06:15;98460.27;;;0.32;67.60
77823;BME280;67013;49.730;17.292;2023-03-03T06:08:46;98461.32;;;0.42;67.27
77823;BME280;67013;49.730;17.292;2023-03-03T06:11:15;98463.98;;;1.08;66.58
77823;BME280;67013;49.730;17.292;2023-03-03T06:13:46;98469.54;;;2.21;64.97
77823;BME280;67013;49.730;17.292;2023-03-03T06:16:15;98473.91;;;3.30;63.39
77823;BME280;67013;49.730;17.292;2023-03-03T06:18:45;98479.27;;;4.38;61.27
77823;BME280;67013;49.730;17.292;2023-03-03T06:21:14;98481.06;;;5.43;59.58
77823;BME280;67013;49.730;17.292;2023-03-03T06:23:44;98494.21;;;6.41;57.47
77823;BME280;67013;49.730;17.292;2023-03-03T06:26:13;98496.12;;;7.33;54.88
77823;BME280;67013;49.730;17.292;2023-03-03T06:28:43;98498.50;;;8.24;53.27
77823;BME280;67013;49.730;17.292;2023-03-03T06:31:12;98492.92;;;9.11;50.81
77823;BME280;67013;49.730;17.292;2023-03-03T06:33:42;98499.45;;;9.95;48.84
77823;BME280;67013;49.730;17.292;2023-03-03T06:36:11;98501.70;;;10.73;47.01
77823;BME280;67013;49.730;17.292;2023-03-03T06:38:40;98504.78;;;11.54;45.09
77823;BME280;67013;49.730;17.292;2023-03-03T06:41:11;98508.98;;;12.36;43.62
77823;BME280;67013;49.730;17.292;2023-03-03T06:43:40;98519.33;;;13.07;41.43
77823;BME280;67013;49.730;17.292;2023-03-03T06:46:10;98523.98;;;13.70;39.79
77823;BME280;67013;49.730;17.292;2023-03-03T06:48:39;98529.92;;;14.37;38.89
77823;BME280;67013;49.730;17.292;2023-03-03T06:51:21;98536.52;;;15.12;37.24
77823;BME280;67013;49.730;17.292;2023-03-03T06:53:53;98535.67;;;15.87;35.87
77823;BME280;67013;49.730;17.292;2023-03-03T06:56:24;98533.70;;;16.51;34.52
77823;BME280;67013;49.730;17.292;2023-03-03T06:58:57;98534.13;;;17.02;33.26
77823;BME280;67013;49.730;17.292;2023-03-03T07:01:34;98539.69;;;17.61;32.54
77823;BME280;67013;49.730;17.292;2023-03-03T07:04:10;98534.70;;;18.21;31.66
77823;BME280;67013;49.730;17.292;2023-03-03T07:06:42;98539.88;;;18.87;30.80
77823;BME280;67013;49.730;17.292;2023-03-03T07:09:17;98533.27;;;19.47;29.54
77823;BME280;67013;49.730;17.292;2023-03-03T07:11:47;98518.52;;;20.10;28.63
77823;BME280;67013;49.730;17.292;2023-03-03T07:14:19;98518.73;;;20.64;27.14
77823;BME280;67013;49.730;17.292;2023-03-03T07:16:47;98524.34;;;21.17;27.05
77823;BME280;67013;49.730;17.292;2023-03-03T07:19:28;98522.56;;;21.73;26.00
77823;BME280;67013;49.730;17.292;2023-03-03T07:22:01;98522.80;;;22.31;25.18
77823;BME280;67013;49.730;17.292;2023-03-03T07:24:41;98529.20;;;22.89;24.32
77823;BME280;67013;49.730;17.292;2023-03-03T07:27:15;98533.31;;;23.53;23.95
77823;BME280;67013;49.730;17.292;2023-03-03T07:29:48;98533.63;;;24.28;23.11
77823;BME280;67013;49.730;17.292;2023-03-03T07:32:23;98533.56;;;24.87;21.47
77823;BME280;67013;49.730;17.292;2023-03-03T07:34:54;98532.59;;;25.51;21.05
77823;BME280;67013;49.730;17.292;2023-03-03T07:37:30;98533.81;;;26.51;20.59
77823;BME280;67013;49.730;17.292;2023-03-03T07:40:20;98540.67;;;27.81;19.69
77823;BME280;67013;49.730;17.292;2023-03-03T07:42:53;98529.73;;;29.10;18.64
77823;BME280;67013;49.730;17.292;2023-03-03T07:45:28;98529.01;;;30.26;18.18
77823;BME280;67013;49.730;17.292;2023-03-03T07:48:03;98523.09;;;31.41;17.21
77823;BME280;67013;49.730;17.292;2023-03-03T07:50:36;98517.34;;;31.95;15.51
77823;BME280;67013;49.730;17.292;2023-03-03T07:53:13;98525.25;;;31.80;15.39
77823;BME280;67013;49.730;17.292;2023-03-03T07:55:43;98524.63;;;31.78;15.26
77823;BME280;67013;49.730;17.292;2023-03-03T07:58:21;98518.61;;;31.53;15.22
77823;BME280;67013;49.730;17.292;2023-03-03T08:03:54;98499.95;;;31.47;15.11
77823;BME280;67013;49.730;17.292;2023-03-03T08:06:43;98492.56;;;31.67;14.80
77823;BME280;67013;49.730;17.292;2023-03-03T08:09:41;98497.80;;;32.01;14.55
77823;BME280;67013;49.730;17.292;2023-03-03T08:12:21;98507.46;;;32.29;14.39
77823;BME280;67013;49.730;17.292;2023-03-03T08:14:54;98506.55;;;32.73;14.27
77823;BME280;67013;49.730;17.292;2023-03-03T08:17:28;98504.41;;;33.36;14.07
77823;BME280;67013;49.730;17.292;2023-03-03T08:22:52;98512.26;;;35.05;13.33
77823;BME280;67013;49.730;17.292;2023-03-03T08:25:21;98516.00;;;35.72;13.00
77823;BME280;67013;49.730;17.292;2023-03-03T08:27:51;98509.54;;;36.38;12.27
77823;BME280;67013;49.730;17.292;2023-03-03T08:30:21;98509.13;;;36.87;12.00
77823;BME280;67013;49.730;17.292;2023-03-03T08:32:50;98516.52;;;37.50;11.99
77823;BME280;67013;49.730;17.292;2023-03-03T08:35:19;98512.04;;;38.14;11.50
77823;BME280;67013;49.730;17.292;2023-03-03T08:37:49;98503.66;;;38.74;10.74
77823;BME280;67013;49.730;17.292;2023-03-03T08:40:19;98507.30;;;39.06;10.70
77823;BME280;67013;49.730;17.292;2023-03-03T08:42:49;98507.25;;;39.36;10.30
77823;BME280;67013;49.730;17.292;2023-03-03T08:45:18;98510.39;;;39.64;10.23
77823;BME280;67013;49.730;17.292;2023-03-03T08:47:47;98507.39;;;39.89;10.42
77823;BME280;67013;49.730;17.292;2023-03-03T08:50:18;98503.83;;;40.24;10.43
77823;BME280;67013;49.730;17.292;2023-03-03T08:52:47;98507.79;;;40.62;9.72
77823;BME280;67013;49.730;17.292;2023-03-03T08:55:17;98503.72;;;40.53;9.54
77823;BME280;67013;49.730;17.292;2023-03-03T08:57:46;98500.63;;;40.46;9.75
77823;BME280;67013;49.730;17.292;2023-03-03T09:00:18;98504.48;;;40.26;9.75
77823;BME280;67013;49.730;17.292;2023-03-03T09:02:48;98508.05;;;40.13;10.07
77823;BME280;67013;49.730;17.292;2023-03-03T09:05:17;98512.95;;;40.08;10.28
77823;BME280;67013;49.730;17.292;2023-03-03T09:07:47;98515.89;;;39.83;10.14
77823;BME280;67013;49.730;17.292;2023-03-03T09:10:18;98519.89;;;39.69;10.20
77823;BME280;67013;49.730;17.292;2023-03-03T09:12:49;98524.79;;;39.48;10.09
77823;BME280;67013;49.730;17.292;2023-03-03T09:15:23;98525.47;;;38.80;10.35
77823;BME280;67013;49.730;17.292;2023-03-03T09:17:54;98526.17;;;38.72;10.48
77823;BME280;67013;49.730;17.292;2023-03-03T09:20:31;98526.54;;;38.52;10.61
77823;BME280;67013;49.730;17.292;2023-03-03T09:23:27;98530.73;;;38.64;10.57
77823;BME280;67013;49.730;17.292;2023-03-03T09:25:57;98526.79;;;38.92;10.63
77823;BME280;67013;49.730;17.292;2023-03-03T09:28:29;98525.58;;;39.02;10.31
77823;BME280;67013;49.730;17.292;2023-03-03T09:31:01;98528.48;;;39.06;10.27
77823;BME280;67013;49.730;17.292;2023-03-03T09:33:41;98521.77;;;39.10;10.24
77823;BME280;67013;49.730;17.292;2023-03-03T09:36:20;98518.02;;;38.95;10.22
77823;BME280;67013;49.730;17.292;2023-03-03T09:38:51;98513.23;;;39.32;10.27
77823;BME280;67013;49.730;17.292;2023-03-03T09:44:11;98518.33;;;39.77;10.19
77823;BME280;67013;49.730;17.292;2023-03-03T09:46:56;98518.58;;;39.61;9.92
77823;BME280;67013;49.730;17.292;2023-03-03T09:49:32;98515.45;;;39.21;10.16
77823;BME280;67013;49.730;17.292;2023-03-03T09:52:16;98512.74;;;39.23;10.21
77823;BME280;67013;49.730;17.292;2023-03-03T09:54:57;98509.02;;;39.04;10.14
77823;BME280;67013;49.730;17.292;2023-03-03T09:57:39;98506.55;;;38.65;10.25
77823;BME280;67013;49.730;17.292;2023-03-03T10:00:21;98508.73;;;36.89;10.76
77823;BME280;67013;49.730;17.292;2023-03-03T10:03:10;98509.14;;;34.29;12.02
77823;BME280;67013;49.730;17.292;2023-03-03T10:05:48;98511.90;;;31.77;13.42
77823;BME280;67013;49.730;17.292;2023-03-03T10:08:31;98519.58;;;29.37;15.17
77823;BME280;67013;49.730;17.292;2023-03-03T10:11:13;98525.75;;;27.43;16.70
77823;BME280;67013;49.730;17.292;2023-03-03T10:14:07;98519.50;;;26.03;18.08
77823;BME280;67013;49.730;17.292;2023-03-03T10:16:47;98523.07;;;24.91;19.06
77823;BME280;67013;49.730;17.292;2023-03-03T10:19:34;98521.53;;;24.30;20.00
77823;BME280;67013;49.730;17.292;2023-03-03T10:22:15;98524.62;;;23.76;20.48
77823;BME280;67013;49.730;17.292;2023-03-03T10:25:01;98523.95;;;22.95;21.30
77823;BME280;67013;49.730;17.292;2023-03-03T10:27:45;98522.98;;;22.48;22.12
77823;BME280;67013;49.730;17.292;2023-03-03T10:30:23;98523.30;;;22.26;22.51
77823;BME280;67013;49.730;17.292;2023-03-03T10:32:58;98524.85;;;22.10;22.94
77823;BME280;67013;49.730;17.292;2023-03-03T10:35:46;98522.38;;;21.95;23.37
77823;BME280;67013;49.730;17.292;2023-03-03T10:38:43;98523.14;;;21.76;23.58
77823;BME280;67013;49.730;17.292;2023-03-03T10:44:25;98522.13;;;21.30;24.24
77823;BME280;67013;49.730;17.292;2023-03-03T10:47:24;98521.55;;;20.92;24.61
77823;BME280;67013;49.730;17.292;2023-03-03T10:50:06;98523.61;;;20.61;24.82
77823;BME280;67013;49.730;17.292;2023-03-03T10:52:45;98519.89;;;20.30;25.09
77823;BME280;67013;49.730;17.292;2023-03-03T10:55:37;98517.49;;;19.89;25.63
77823;BME280;67013;49.730;17.292;2023-03-03T10:58:24;98513.57;;;19.52;26.43
77823;BME280;67013;49.730;17.292;2023-03-03T11:01:01;98518.35;;;19.32;26.76
77823;BME280;67013;49.730;17.292;2023-03-03T11:03:59;98514.28;;;19.07;27.07
77823;BME280;67013;49.730;17.292;2023-03-03T11:06:39;98514.42;;;18.88;27.80
77823;BME280;67013;49.730;17.292;2023-03-03T11:09:22;98511.75;;;18.76;27.73
77823;BME280;67013;49.730;17.292;2023-03-03T11:12:01;98510.16;;;18.55;28.11
77823;BME280;67013;49.730;17.292;2023-03-03T11:14:38;98507.13;;;18.25;28.31
77823;BME280;67013;49.730;17.292;2023-03-03T11:17:20;98508.19;;;18.03;28.61
77823;BME280;67013;49.730;17.292;2023-03-03T11:20:02;98504.33;;;17.91;29.40
77823;BME280;67013;49.730;17.292;2023-03-03T11:22:41;98504.33;;;17.88;29.55
77823;BME280;67013;49.730;17.292;2023-03-03T11:25:23;98501.73;;;17.82;29.61
77823;BME280;67013;49.730;17.292;2023-03-03T11:28:10;98496.20;;;17.76;29.76
77823;BME280;67013;49.730;17.292;2023-03-03T11:30:54;98494.91;;;17.68;29.84
77823;BME280;67013;49.730;17.292;2023-03-03T11:33:35;98493.58;;;17.62;30.00
77823;BME280;67013;49.730;17.292;2023-03-03T11:36:13;98491.73;;;17.57;30.11
77823;BME280;67013;49.730;17.292;2023-03-03T11:38:57;98490.48;;;17.57;30.17
77823;BME280;67013;49.730;17.292;2023-03-03T11:41:37;98488.63;;;17.51;30.25
77823;BME280;67013;49.730;17.292;2023-03-03T11:44:17;98488.29;;;17.46;30.53
77823;BME280;67013;49.730;17.292;2023-03-03T11:46:51;98489.56;;;17.35;30.62
77823;BME280;67013;49.730;17.292;2023-03-03T11:49:26;98486.17;;;17.19;31.23
77823;BME280;67013;49.730;17.292;2023-03-03T11:52:04;98489.17;;;17.10;31.15
77823;BME280;67013;49.730;17.292;2023-03-03T11:54:45;98485.05;;;16.99;31.26
77823;BME280;67013;49.730;17.292;2023-03-03T11:57:21;98485.44;;;16.86;31.43
77823;BME280;67013;49.730;17.292;2023-03-03T12:00:02;98480.95;;;16.52;32.34
77823;BME280;67013;49.730;17.292;2023-03-03T12:02:58;98482.56;;;16.32;32.59
77823;BME280;67013;49.730;17.292;2023-03-03T12:05:46;98480.30;;;16.05;32.82
77823;BME280;67013;49.730;17.292;2023-03-03T12:08:37;98484.39;;;15.63;33.13
77823;BME280;67013;49.730;17.292;2023-03-03T12:11:14;98482.51;;;15.39;33.65
77823;BME280;67013;49.730;17.292;2023-03-03T12:13:52;98485.60;;;15.08;33.44
77823;BME280;67013;49.730;17.292;2023-03-03T12:16:35;98488.92;;;14.76;33.75
77823;BME280;67013;49.730;17.292;2023-03-03T12:22:11;98482.37;;;13.82;34.89
77823;BME280;67013;49.730;17.292;2023-03-03T12:24:57;98488.89;;;13.29;36.04
77823;BME280;67013;49.730;17.292;2023-03-03T12:27:37;98491.70;;;12.79;36.75
77823;BME280;67013;49.730;17.292;2023-03-03T12:30:21;98495.46;;;12.46;37.67
77823;BME280;67013;49.730;17.292;2023-03-03T12:33:09;98493.25;;;12.09;38.23
77823;BME280;67013;49.730;17.292;2023-03-03T12:35:45;98494.71;;;11.83;38.95
77823;BME280;67013;49.730;17.292;2023-03-03T12:38:24;98487.04;;;11.63;39.26
77823;BME280;67013;49.730;17.292;2023-03-03T12:41:02;98483.27;;;11.36;40.05
77823;BME280;67013;49.730;17.292;2023-03-03T12:43:45;98487.19;;;11.05;40.83
77823;BME280;67013;49.730;17.292;2023-03-03T12:46:21;98483.46;;;10.72;41.42
77823;BME280;67013;49.730;17.292;2023-03-03T12:48:54;98491.83;;;10.43;42.01
77823;BME280;67013;49.730;17.292;2023-03-03T12:51:32;98493.47;;;10.24;42.47
77823;BME280;67013;49.730;17.292;2023-03-03T12:54:29;98496.53;;;10.05;42.79
77823;BME280;67013;49.730;17.292;2023-03-03T12:57:11;98498.59;;;9.83;43.27
77823;BME280;67013;49.730;17.292;2023-03-03T12:59:52;98493.63;;;9.59;44.02
77823;BME280;67013;49.730;17.292;2023-03-03T13:02:46;98496.48;;;9.29;44.78
77823;BME280;67013;49.730;17.292;2023-03-03T13:05:21;98489.79;;;9.04;45.31
77823;BME280;67013;49.730;17.292;2023-03-03T13:07:58;98487.23;;;8.79;46.51
77823;BME280;67013;49.730;17.292;2023-03-03T13:10:37;98488.01;;;8.53;47.19
77823;BME280;67013;49.730;17.292;2023-03-03T13:13:13;98485.72;;;8.32;47.45
77823;BME280;67013;49.730;17.292;2023-03-03T13:15:47;98484.10;;;8.16;47.91
77823;BME280;67013;49.730;17.292;2023-03-03T13:18:33;98474.02;;;8.02;48.38
77823;BME280;67013;49.730;17.292;2023-03-03T13:21:11;98472.86;;;7.87;48.55
77823;BME280;67013;49.730;17.292;2023-03-03T13:23:50;98469.65;;;7.77;49.03
77823;BME280;67013;49.730;17.292;2023-03-03T13:26:28;98473.61;;;7.74;49.39
77823;BME280;67013;49.730;17.292;2023-03-03T13:29:10;98476.60;;;7.71;49.89
77823;BME280;67013;49.730;17.292;2023-03-03T13:31:47;98473.36;;;7.72;49.75
77823;BME280;67013;49.730;17.292;2023-03-03T13:34:26;98481.12;;;7.73;49.83
77823;BME280;67013;49.730;17.292;2023-03-03T13:37:05;98480.05;;;7.68;50.06
77823;BME280;67013;49.730;17.292;2023-03-03T13:39:39;98480.59;;;7.59;50.20
77823;BME280;67013;49.730;17.292;2023-03-03T13:42:18;98482.00;;;7.53;50.47
77823;BME280;67013;49.730;17.292;2023-03-03T13:44:52;98481.03;;;7.43;50.78
77823;BME280;67013;49.730;17.292;2023-03-03T13:47:27;98477.12;;;7.36;50.86
77823;BME280;67013;49.730;17.292;2023-03-03T13:50:16;98478.52;;;7.30;51.04